Tampa, Florida
Traffic Map
Current Weather Conditions
Tampa, Florida
Overcast
Overcast
66°
Feels Like: 66°
Wind Chill: 66° Ceiling: 6500
Heat Index: 66° Visibility: 10mi
Dew Point: 58° Wind: 3mph
Humidity: 75% Direction: 30° (NNE)
Pressure: 30.07in Gusts: 0mph
Raw Report DataKTPA 210653Z 03003KT 10SM BKN065 BKN090 OVC150 19/14 A3007 RMK AO2 SLP180 T01890144
Traffic Incident Summary
Active as of:
Severity:
Category:
InformationThere was an issue retrieving the traffic information for this location. Please try a different location or try again shortly.
Advertisements
Track Severe Weather on mobile